Time;durP1;ratioP1;P1;durP2;ratioP2;P2;SDS_P1;SDS_P2;PMS_P1;PMS_P2;Temp;Humidity;BMP_temperature;BMP_pressure;BME280_temperature;BME280_humidity;BME280_pressure;Samples;Min_cycle;Max_cycle;Signal;HPM_P1;HPM_P2
2023/05/05 00:02:08;;;;;;;7.88;4.13;;;;;;;15.38;93.99;98845.63;5059414;28;20708;-61
2023/05/05 00:04:33;;;;;;;8.13;4.55;;;;;;;15.39;93.64;98841.25;5071568;28;20075;-61
2023/05/05 00:06:59;;;;;;;8.55;4.45;;;;;;;15.38;93.26;98832.53;5075454;28;20032;-61
2023/05/05 00:09:25;;;;;;;8.55;4.75;;;;;;;15.45;92.70;98842.34;5067080;28;20077;-61
2023/05/05 00:11:50;;;;;;;7.10;4.43;;;;;;;15.49;93.23;98844.44;5082252;28;20134;-61
2023/05/05 00:14:16;;;;;;;9.27;4.70;;;;;;;15.45;93.78;98840.53;5074700;28;20038;-59
2023/05/05 00:16:41;;;;;;;7.95;4.28;;;;;;;15.45;93.52;98842.34;5056095;28;20035;-61
2023/05/05 00:19:07;;;;;;;8.65;5.05;;;;;;;15.44;94.11;98833.69;5069440;28;20066;-61
2023/05/05 00:21:33;;;;;;;8.02;4.63;;;;;;;15.51;93.47;98839.03;5071034;28;20032;-61
2023/05/05 00:23:58;;;;;;;7.75;4.30;;;;;;;15.49;94.25;98838.41;5074420;28;20765;-61
2023/05/05 00:26:24;;;;;;;8.15;4.35;;;;;;;15.29;94.43;98833.56;5061303;28;20539;-61
2023/05/05 00:28:52;;;;;;;6.82;4.72;;;;;;;15.30;94.63;98839.63;5076312;28;20043;-61
2023/05/05 00:31:17;;;;;;;7.07;4.32;;;;;;;15.23;93.37;98800.19;5064783;28;20020;-61
2023/05/05 00:33:43;;;;;;;6.50;4.60;;;;;;;15.47;93.80;98829.91;5068710;28;20036;-61
2023/05/05 00:36:09;;;;;;;7.22;4.53;;;;;;;15.33;95.21;98836.66;5070274;28;20703;-60
2023/05/05 00:38:34;;;;;;;7.55;4.60;;;;;;;15.34;94.76;98833.06;5057797;28;20059;-61
2023/05/05 00:41:02;;;;;;;8.02;4.63;;;;;;;15.38;93.87;98829.91;5068901;28;20031;-60
2023/05/05 00:43:28;;;;;;;6.38;4.50;;;;;;;15.53;94.05;98834.44;5077676;28;20032;-61
2023/05/05 00:46:03;;;;;;;7.35;4.78;;;;;;;15.40;94.68;98826.31;5063857;28;20142;-61
2023/05/05 00:48:29;;;;;;;8.50;4.72;;;;;;;15.48;94.89;98824.50;5059505;28;20025;-60
2023/05/05 00:50:55;;;;;;;6.63;4.68;;;;;;;15.32;94.68;98825.38;5069404;28;20077;-60
2023/05/05 00:53:20;;;;;;;7.63;4.85;;;;;;;15.18;93.84;98786.78;5075727;28;20407;-61
2023/05/05 00:55:46;;;;;;;6.88;4.50;;;;;;;15.37;93.10;98809.97;5074682;28;20028;-60
2023/05/05 00:58:12;;;;;;;8.00;4.65;;;;;;;15.62;91.79;98809.81;5074052;28;20404;-61
2023/05/05 01:00:38;;;;;;;7.03;4.63;;;;;;;15.39;91.84;98773.13;5069041;28;20511;-60
2023/05/05 01:03:04;;;;;;;7.07;4.43;;;;;;;15.64;92.79;98809.66;5071167;28;20040;-61
2023/05/05 01:06:14;;;;;;;6.18;4.60;;;;;;;15.63;92.36;98813.28;5052830;28;20131;-60
2023/05/05 01:08:43;;;;;;;;;;;;;;;15.53;93.65;98811.69;5072672;28;20500;-60
2023/05/05 01:11:17;;;;;;;6.50;4.50;;;;;;;15.62;93.78;98807.22;5072884;28;20405;-61
2023/05/05 01:14:09;;;;;;;6.47;4.65;;;;;;;15.45;93.46;98767.19;5074918;28;20038;-61
2023/05/05 01:16:37;;;;;;;6.80;4.32;;;;;;;15.55;94.11;98795.78;5069601;28;20399;-61
2023/05/05 01:19:23;;;;;;;10.15;4.95;;;;;;;15.62;94.16;98807.22;5068545;28;20031;-61
2023/05/05 01:21:54;;;;;;;9.05;5.10;;;;;;;15.38;93.82;98774.09;5083505;28;20111;-61
2023/05/05 01:24:49;;;;;;;6.88;4.78;;;;;;;15.60;93.50;98803.94;5049550;28;20044;-61
2023/05/05 01:27:36;;;;;;;6.57;4.85;;;;;;;15.66;93.15;98799.81;5074895;28;20555;-61
2023/05/05 01:30:03;;;;;;;7.38;4.40;;;;;;;15.69;94.06;98795.03;5070105;28;20027;-60
2023/05/05 01:32:33;;;;;;;7.20;4.70;;;;;;;15.75;94.15;98797.03;5074886;28;20065;-61
2023/05/05 01:35:14;;;;;;;6.82;4.30;;;;;;;15.43;94.14;98761.28;5072411;28;20028;-61
2023/05/05 01:37:48;;;;;;;6.95;4.35;;;;;;;15.57;95.11;98793.81;5079765;28;20089;-61
2023/05/05 01:40:22;;;;;;;6.50;4.22;;;;;;;15.36;93.77;98762.97;5072556;28;20563;-61
2023/05/05 01:42:49;;;;;;;5.93;4.03;;;;;;;15.35;93.91;98785.75;5068950;28;20032;-61
2023/05/05 01:45:16;;;;;;;7.80;4.20;;;;;;;15.30;95.60;98792.47;5073942;28;20388;-61
2023/05/05 01:47:43;;;;;;;7.65;4.60;;;;;;;15.30;96.16;98792.47;5048017;28;20737;-61
2023/05/05 01:50:09;;;;;;;7.78;4.72;;;;;;;15.21;99.12;98793.50;5075188;28;20035;-61
2023/05/05 01:52:36;;;;;;;8.35;4.50;;;;;;;15.03;100.00;98794.53;5069029;28;20059;-61
2023/05/05 01:55:02;;;;;;;11.05;4.97;;;;;;;14.98;100.00;98796.84;5054644;28;20035;-61
2023/05/05 01:57:30;;;;;;;8.40;4.78;;;;;;;14.78;100.00;98750.13;5052902;28;20107;-60
2023/05/05 01:59:57;;;;;;;7.60;4.80;;;;;;;15.01;100.00;98796.50;5068787;28;20044;-61
2023/05/05 02:02:25;;;;;;;7.50;4.82;;;;;;;15.07;100.00;98801.06;5068128;28;20028;-61
2023/05/05 02:04:52;;;;;;;7.03;5.10;;;;;;;15.12;100.00;98798.75;5071440;28;20481;-61
2023/05/05 02:07:18;;;;;;;6.55;4.25;;;;;;;15.09;100.00;98796.47;5071378;28;20024;-61
2023/05/05 02:09:45;;;;;;;9.13;5.28;;;;;;;15.19;100.00;98789.25;5074492;28;20020;-61
2023/05/05 02:12:11;;;;;;;7.32;4.15;;;;;;;15.09;100.00;98772.09;5072852;28;20401;-61
2023/05/05 02:14:39;;;;;;;6.90;4.55;;;;;;;15.00;100.00;98779.16;5072526;28;20073;-60
2023/05/05 02:17:05;;;;;;;8.88;4.93;;;;;;;15.04;100.00;98774.41;5064621;28;20059;-61
2023/05/05 02:19:38;;;;;;;7.25;4.30;;;;;;;15.16;100.00;98775.66;5059911;28;20425;-61
2023/05/05 02:22:04;;;;;;;7.57;4.80;;;;;;;15.28;100.00;98782.16;5062985;28;20032;-61
2023/05/05 02:24:29;;;;;;;7.75;4.75;;;;;;;15.31;100.00;98778.38;5075501;28;20043;-61
2023/05/05 02:26:57;;;;;;;6.38;4.38;;;;;;;15.27;100.00;98774.47;5071693;28;20582;-61
2023/05/05 02:29:34;;;;;;;6.55;4.38;;;;;;;15.27;100.00;98775.28;5059895;28;20032;-61
2023/05/05 02:32:13;;;;;;;7.50;4.68;;;;;;;15.25;100.00;98768.59;5071001;28;20032;-60
2023/05/05 02:34:40;;;;;;;9.23;4.80;;;;;;;15.36;100.00;98776.88;5070292;28;20050;-61
2023/05/05 02:37:06;;;;;;;8.38;4.47;;;;;;;15.38;100.00;98769.66;5076000;28;20140;-61
2023/05/05 02:39:44;;;;;;;7.13;4.50;;;;;;;15.49;100.00;98773.69;5050048;28;20082;-60
2023/05/05 02:42:13;;;;;;;7.60;4.47;;;;;;;15.53;100.00;98771.56;5073181;28;20484;-61
2023/05/05 02:44:41;;;;;;;5.85;4.13;;;;;;;15.56;100.00;98773.84;5071788;28;20024;-60
2023/05/05 02:47:09;;;;;;;6.15;4.18;;;;;;;15.47;100.00;98767.81;5059075;28;20036;-61
2023/05/05 02:49:34;;;;;;;6.40;4.03;;;;;;;15.44;100.00;98764.72;5083372;28;20055;-60
2023/05/05 02:52:00;;;;;;;6.88;4.35;;;;;;;15.43;100.00;98774.41;5068784;28;20175;-61
2023/05/05 02:54:26;;;;;;;5.90;4.20;;;;;;;15.26;100.00;98762.34;5060014;28;20403;-60
2023/05/05 02:56:53;;;;;;;5.90;4.22;;;;;;;15.22;100.00;98761.88;5042688;28;20734;-60
2023/05/05 02:59:38;;;;;;;6.60;3.75;;;;;;;15.25;100.00;98771.22;5049548;28;20131;-61
2023/05/05 03:02:06;;;;;;;8.25;4.40;;;;;;;15.33;100.00;98771.16;5062792;28;20025;-61
2023/05/05 03:04:39;;;;;;;7.10;3.85;;;;;;;15.39;100.00;98765.25;5063503;28;20050;-61
2023/05/05 03:07:13;;;;;;;6.57;4.40;;;;;;;15.41;100.00;98765.91;5057917;28;20109;-61
2023/05/05 03:10:03;;;;;;;8.13;4.25;;;;;;;15.40;100.00;98768.69;5035713;28;20028;-61
2023/05/05 03:12:36;;;;;;;6.65;4.00;;;;;;;15.40;100.00;98756.38;5040908;28;20041;-61
2023/05/05 03:15:03;;;;;;;7.43;4.20;;;;;;;15.21;100.00;98717.53;5059786;28;20099;-61
2023/05/05 03:17:29;;;;;;;6.80;4.00;;;;;;;15.46;100.00;98758.34;5054451;28;20444;-61
2023/05/05 03:19:55;;;;;;;7.00;4.25;;;;;;;15.28;100.00;98755.97;5050939;28;20122;-61
2023/05/05 03:22:21;;;;;;;8.57;4.32;;;;;;;15.11;100.00;98757.03;5050449;28;20126;-61
2023/05/05 03:24:50;;;;;;;6.38;4.47;;;;;;;15.04;100.00;98749.06;5050897;28;20063;-61
2023/05/05 03:27:16;;;;;;;7.75;4.22;;;;;;;15.03;100.00;98750.03;5038785;28;20040;-60
2023/05/05 03:29:42;;;;;;;7.05;4.30;;;;;;;15.11;100.00;98755.25;5055865;28;20115;-61
2023/05/05 03:32:10;;;;;;;6.45;4.72;;;;;;;15.15;100.00;98755.69;5055376;28;20423;-61
2023/05/05 03:34:36;;;;;;;6.07;4.35;;;;;;;15.03;100.00;98720.41;5050167;28;20036;-61
2023/05/05 03:37:02;;;;;;;6.95;4.15;;;;;;;15.33;100.00;98748.41;5060850;28;20674;-61
2023/05/05 03:39:27;;;;;;;6.40;4.07;;;;;;;15.42;100.00;98748.38;5051747;28;20036;-60
2023/05/05 03:41:53;;;;;;;5.88;4.07;;;;;;;15.49;100.00;98742.25;5039755;28;20072;-61
2023/05/05 03:44:19;;;;;;;6.70;4.20;;;;;;;15.53;100.00;98737.47;5056878;28;20024;-61
2023/05/05 03:46:44;;;;;;;5.90;3.90;;;;;;;15.57;100.00;98742.22;5051839;28;20047;-61
2023/05/05 03:49:10;;;;;;;7.38;4.35;;;;;;;15.62;100.00;98733.00;5057871;28;20043;-61
2023/05/05 03:51:36;;;;;;;5.90;4.20;;;;;;;15.68;100.00;98748.03;5049476;28;20032;-61
2023/05/05 03:54:02;;;;;;;7.45;4.40;;;;;;;15.66;100.00;98740.38;5061673;28;20617;-61
2023/05/05 03:56:27;;;;;;;6.45;4.10;;;;;;;15.71;100.00;98734.59;5071227;28;20111;-60
2023/05/05 03:58:53;;;;;;;7.22;3.80;;;;;;;15.73;100.00;98737.84;5082504;28;20032;-61
2023/05/05 04:01:22;;;;;;;7.20;4.95;;;;;;;15.74;100.00;98740.31;5075391;28;20036;-60
2023/05/05 04:03:47;;;;;;;6.67;4.03;;;;;;;15.67;100.00;98746.41;5090202;28;20028;-61
2023/05/05 04:06:13;;;;;;;6.55;3.88;;;;;;;15.67;100.00;98738.56;5071046;28;20044;-61
2023/05/05 04:08:38;;;;;;;5.78;3.78;;;;;;;15.81;100.00;98737.00;5076427;28;20031;-61
2023/05/05 04:11:04;;;;;;;7.22;3.88;;;;;;;15.63;100.00;98721.56;5081417;28;20065;-61
2023/05/05 04:13:30;;;;;;;7.93;4.20;;;;;;;15.74;100.00;98739.53;5091210;28;20083;-60
2023/05/05 04:15:55;;;;;;;7.28;4.13;;;;;;;15.80;100.00;98753.72;5080951;28;20039;-61
2023/05/05 04:18:21;;;;;;;7.07;4.25;;;;;;;15.81;100.00;98750.09;5073208;28;21669;-61
2023/05/05 04:20:47;;;;;;;7.70;5.80;;;;;;;15.50;100.00;98709.84;5060036;28;20031;-61
2023/05/05 04:23:12;;;;;;;6.70;5.07;;;;;;;15.73;100.00;98746.53;5081387;28;20096;-61
2023/05/05 04:25:38;;;;;;;7.00;4.85;;;;;;;15.70;100.00;98748.69;5083605;28;20380;-61
2023/05/05 04:28:04;;;;;;;6.97;4.72;;;;;;;15.47;100.00;98710.16;5073118;28;20030;-61
2023/05/05 04:30:30;;;;;;;7.03;4.45;;;;;;;15.49;100.00;98717.88;5051728;28;20545;-61
2023/05/05 04:32:56;;;;;;;5.57;4.00;;;;;;;15.59;100.00;98749.91;5058787;28;20042;-61
2023/05/05 04:35:22;;;;;;;6.63;4.47;;;;;;;15.56;100.00;98769.41;5078921;28;21150;-61
2023/05/05 04:37:49;;;;;;;7.28;4.07;;;;;;;15.50;100.00;98770.09;5050704;28;20032;-61
2023/05/05 04:40:15;;;;;;;6.72;4.07;;;;;;;15.56;100.00;98761.53;5080469;28;20024;-61
2023/05/05 04:42:40;;;;;;;7.95;4.45;;;;;;;15.43;100.00;98763.91;5066966;28;20077;-61
2023/05/05 04:45:07;;;;;;;6.13;4.03;;;;;;;15.51;100.00;98768.28;5054008;28;20784;-61
2023/05/05 04:47:40;;;;;;;7.20;4.57;;;;;;;15.52;100.00;98769.94;5078300;28;21570;-61
2023/05/05 04:50:06;;;;;;;10.30;4.50;;;;;;;15.49;100.00;98765.03;5073821;28;20019;-61
2023/05/05 04:52:32;;;;;;;9.10;4.10;;;;;;;15.32;100.00;98772.97;5085859;28;20052;-61
2023/05/05 04:55:01;;;;;;;6.53;4.05;;;;;;;15.37;100.00;98777.72;5075644;28;20023;-60
2023/05/05 04:57:27;;;;;;;6.25;4.28;;;;;;;15.20;100.00;98742.91;5056085;28;20067;-61
2023/05/05 04:59:52;;;;;;;7.70;4.40;;;;;;;15.46;100.00;98781.09;5079036;28;20112;-61
2023/05/05 05:02:18;;;;;;;5.63;4.05;;;;;;;15.32;100.00;98780.84;5088613;28;20766;-61
2023/05/05 05:04:48;;;;;;;5.97;4.38;;;;;;;15.39;100.00;98778.34;5093145;28;20034;-61
2023/05/05 05:07:13;;;;;;;6.32;4.30;;;;;;;15.30;100.00;98782.00;5090203;28;20725;-61
2023/05/05 05:09:42;;;;;;;7.30;4.68;;;;;;;15.30;100.00;98784.63;5081871;28;20081;-61
2023/05/05 05:12:09;;;;;;;6.15;4.30;;;;;;;15.32;100.00;98786.06;5068477;28;20032;-61
2023/05/05 05:14:41;;;;;;;6.25;4.43;;;;;;;15.34;100.00;98781.47;5077227;28;20031;-61
2023/05/05 05:17:08;;;;;;;6.28;4.28;;;;;;;15.46;100.00;98784.53;5060869;28;20045;-60
2023/05/05 05:19:34;;;;;;;7.93;4.15;;;;;;;15.24;100.00;98762.56;5068934;28;20031;-61
2023/05/05 05:21:59;;;;;;;6.80;4.35;;;;;;;15.09;100.00;98738.84;5096629;28;20035;-61
2023/05/05 05:24:27;;;;;;;8.70;4.55;;;;;;;15.40;100.00;98790.44;5072916;28;20032;-61
2023/05/05 05:26:55;;;;;;;7.00;4.65;;;;;;;15.39;100.00;98786.22;5074848;28;20032;-61
2023/05/05 05:29:20;;;;;;;6.53;4.55;;;;;;;15.28;100.00;98771.69;5073141;28;20024;-59
2023/05/05 05:31:46;;;;;;;7.20;4.40;;;;;;;15.33;100.00;98781.63;5061921;28;20027;-60
2023/05/05 05:34:14;;;;;;;7.07;4.53;;;;;;;15.34;100.00;98783.28;5083039;28;20109;-60
2023/05/05 05:36:41;;;;;;;7.95;5.20;;;;;;;15.07;100.00;98746.06;5070214;28;20036;-60
2023/05/05 05:39:11;;;;;;;6.75;4.30;;;;;;;14.93;100.00;98717.97;5062276;28;20168;-60
2023/05/05 05:41:36;;;;;;;6.63;4.50;;;;;;;15.23;100.00;98781.06;5085667;28;20752;-60
2023/05/05 05:44:04;;;;;;;6.95;4.93;;;;;;;15.33;100.00;98786.88;5061788;28;20032;-60
2023/05/05 05:46:29;;;;;;;6.88;4.60;;;;;;;15.46;100.00;98794.19;5060436;28;20062;-59
2023/05/05 05:48:56;;;;;;;6.22;4.50;;;;;;;15.56;100.00;98802.66;5078504;28;20107;-60
2023/05/05 05:51:21;;;;;;;7.78;4.80;;;;;;;15.59;100.00;98783.97;5074788;28;20115;-59
2023/05/05 05:53:47;;;;;;;7.55;4.38;;;;;;;15.77;100.00;98796.84;5094313;28;20052;-60
2023/05/05 05:56:12;;;;;;;7.05;5.15;;;;;;;15.74;100.00;98794.56;5072904;28;20060;-60
2023/05/05 05:58:39;;;;;;;7.75;4.60;;;;;;;15.55;100.00;98764.31;5086898;28;20535;-60
2023/05/05 06:01:05;;;;;;;9.55;4.70;;;;;;;15.70;100.00;98799.31;5074311;28;20081;-60
2023/05/05 21:21:40;;;;;;;7.90;5.90;;;;;;;18.53;80.07;98456.16;5087202;27;20139;-60
2023/05/05 21:24:06;;;;;;;8.15;6.45;;;;;;;18.24;79.59;98416.81;5046479;28;20044;-60
2023/05/05 21:26:31;;;;;;;9.20;6.57;;;;;;;18.49;80.74;98462.81;5051250;28;20082;-61
2023/05/05 22:06:31;;;;;;;7.93;5.47;;;;;;;17.95;88.57;98453.97;5063147;28;20032;-60
2023/05/05 22:08:56;;;;;;;;;;;;;;;17.92;89.16;98449.06;5059107;28;20015;-61
2023/05/05 22:11:24;;;;;;;8.50;5.30;;;;;;;17.80;89.84;98446.19;5056708;28;19987;-61
2023/05/05 22:13:49;;;;;;;7.63;5.32;;;;;;;17.80;90.90;98452.25;5057707;28;20365;-60
2023/05/05 22:16:18;;;;;;;7.95;5.68;;;;;;;17.88;91.76;98448.66;5065622;28;20483;-60
2023/05/05 22:18:46;;;;;;;7.20;5.47;;;;;;;17.94;91.84;98449.69;5034387;28;20025;-60
2023/05/05 22:21:14;;;;;;;7.43;5.90;;;;;;;17.91;91.37;98443.00;5050942;28;20282;-60
2023/05/05 22:23:40;;;;;;;7.30;5.68;;;;;;;17.86;91.30;98445.41;5075614;28;20055;-60
2023/05/05 22:26:06;;;;;;;7.50;5.80;;;;;;;17.81;91.83;98447.78;5079077;28;20061;-61
2023/05/05 22:28:32;;;;;;;11.20;5.78;;;;;;;17.75;90.81;98427.53;5064828;28;20088;-60
2023/05/05 22:30:57;;;;;;;7.57;5.50;;;;;;;17.84;91.09;98439.50;5062547;28;20033;-59
2023/05/05 22:33:23;;;;;;;8.30;5.53;;;;;;;17.85;91.42;98447.25;5074154;28;20032;-59
2023/05/05 22:35:48;;;;;;;7.60;5.20;;;;;;;17.64;92.96;98447.31;5063557;28;20658;-61
2023/05/05 22:38:14;;;;;;;8.10;5.40;;;;;;;17.49;92.80;98450.84;5064067;28;20140;-60
2023/05/05 22:40:39;;;;;;;7.40;5.75;;;;;;;17.55;91.18;98458.97;5061876;28;20016;-59
2023/05/05 22:43:04;;;;;;;7.25;5.80;;;;;;;17.26;89.07;98424.81;5093425;28;20031;-59
2023/05/05 22:45:30;;;;;;;9.38;6.50;;;;;;;17.43;88.96;98461.31;5055141;28;20020;-59
2023/05/05 22:47:56;;;;;;;8.07;6.40;;;;;;;17.46;87.97;98453.84;5061275;28;20021;-60
